createdAt,value
2018-08-31T00:01:31.123Z,19.51
2018-08-31T00:05:47.022Z,19.50
2018-08-31T00:11:00.767Z,19.49
2018-08-31T00:15:04.324Z,19.45
2018-08-31T00:19:07.803Z,19.40
2018-08-31T00:23:11.311Z,19.38
2018-08-31T00:27:25.971Z,19.38
2018-08-31T00:33:43.985Z,19.37
2018-08-31T00:38:01.668Z,19.34
2018-08-31T00:43:14.478Z,19.35
2018-08-31T00:47:18.019Z,19.38
2018-08-31T00:51:21.734Z,19.40
2018-08-31T00:55:25.285Z,19.41
2018-08-31T00:59:28.778Z,19.42
2018-08-31T01:03:32.259Z,19.37
2018-08-31T01:07:35.724Z,19.32
2018-08-31T01:11:39.237Z,19.32
2018-08-31T01:15:42.667Z,19.29
2018-08-31T01:19:46.204Z,19.26
2018-08-31T01:23:49.680Z,19.27
2018-08-31T01:27:53.293Z,19.28
2018-08-31T01:31:56.872Z,19.31
2018-08-31T01:36:00.407Z,19.31
2018-08-31T01:40:03.929Z,19.30
2018-08-31T01:44:07.526Z,19.27
2018-08-31T01:48:11.033Z,19.26
2018-08-31T01:52:14.541Z,19.22
2018-08-31T01:56:18.044Z,19.17
2018-08-31T02:00:21.530Z,19.10
2018-08-31T02:04:25.065Z,19.05
2018-08-31T02:08:28.607Z,19.04
2018-08-31T02:12:32.125Z,19.00
2018-08-31T02:16:35.595Z,18.99
2018-08-31T02:20:43.350Z,18.96
2018-08-31T02:24:46.832Z,18.91
2018-08-31T02:28:50.306Z,18.89
2018-08-31T02:32:53.806Z,18.85
2018-08-31T02:36:57.319Z,18.82
2018-08-31T02:41:00.820Z,18.78
2018-08-31T02:45:04.643Z,18.75
2018-08-31T02:49:08.182Z,18.72
2018-08-31T02:53:11.714Z,18.70
2018-08-31T02:57:15.190Z,18.67
2018-08-31T03:01:18.678Z,18.65
2018-08-31T03:05:22.181Z,18.61
2018-08-31T03:09:25.644Z,18.58
2018-08-31T03:13:29.130Z,18.59
2018-08-31T03:17:32.624Z,18.57
2018-08-31T03:21:36.117Z,18.56
2018-08-31T03:25:39.637Z,18.55
2018-08-31T03:29:43.139Z,18.55
2018-08-31T03:33:46.650Z,18.54
2018-08-31T03:37:50.162Z,18.52
2018-08-31T03:41:53.676Z,18.52
2018-08-31T03:45:57.175Z,18.52
2018-08-31T03:50:00.645Z,18.53
2018-08-31T03:54:04.166Z,18.50
2018-08-31T03:58:07.659Z,18.47
2018-08-31T04:02:11.162Z,18.42
2018-08-31T04:06:14.646Z,18.37
2018-08-31T04:10:18.132Z,18.32
2018-08-31T04:14:21.623Z,18.31
2018-08-31T04:18:25.169Z,18.28
2018-08-31T04:22:28.780Z,18.24
2018-08-31T04:26:32.236Z,18.18
2018-08-31T04:30:35.808Z,18.14
2018-08-31T04:34:39.315Z,18.14
2018-08-31T04:38:42.816Z,18.13
2018-08-31T04:42:46.307Z,18.14
2018-08-31T04:46:49.816Z,18.12
2018-08-31T04:50:53.340Z,18.11
2018-08-31T04:54:56.843Z,18.12
2018-08-31T04:59:00.337Z,18.11
2018-08-31T05:03:03.902Z,18.10
2018-08-31T05:07:07.453Z,18.10
2018-08-31T05:11:10.955Z,18.11
2018-08-31T05:15:14.527Z,18.15
2018-08-31T05:19:18.010Z,18.16
2018-08-31T05:23:21.509Z,18.19
2018-08-31T05:27:24.951Z,18.24
2018-08-31T05:31:28.572Z,18.29
2018-08-31T05:35:32.066Z,18.33
2018-08-31T05:39:35.535Z,18.38
2018-08-31T05:43:39.042Z,18.44
2018-08-31T05:47:42.482Z,18.50
2018-08-31T05:51:45.972Z,18.56
2018-08-31T05:55:49.463Z,18.62
2018-08-31T05:59:52.960Z,18.70
2018-08-31T06:03:56.437Z,18.79
2018-08-31T06:07:59.909Z,18.79
2018-08-31T06:12:03.453Z,18.88
2018-08-31T06:16:06.985Z,18.97
2018-08-31T06:20:10.435Z,19.05
2018-08-31T06:24:13.916Z,19.13
2018-08-31T06:28:17.402Z,19.22
2018-08-31T06:32:20.929Z,19.33
2018-08-31T06:36:24.467Z,19.43
2018-08-31T06:40:27.998Z,19.53
2018-08-31T06:44:31.603Z,19.55
2018-08-31T06:48:35.112Z,19.62
2018-08-31T06:52:38.637Z,19.64
2018-08-31T06:56:42.152Z,19.69
2018-08-31T07:00:45.699Z,19.77
2018-08-31T07:04:49.207Z,19.88
2018-08-31T07:08:52.667Z,19.98
2018-08-31T07:12:56.186Z,20.01
2018-08-31T07:16:59.650Z,20.04
2018-08-31T07:21:03.429Z,20.04
2018-08-31T07:25:06.895Z,20.10
2018-08-31T07:29:10.367Z,20.15
2018-08-31T07:33:13.879Z,20.23
2018-08-31T07:37:17.417Z,20.31
2018-08-31T07:41:21.025Z,20.46
2018-08-31T07:45:24.544Z,20.56
2018-08-31T07:49:28.419Z,20.64
2018-08-31T07:53:32.134Z,20.73
2018-08-31T07:57:35.642Z,20.70
2018-08-31T08:01:39.149Z,20.78
2018-08-31T08:05:43.007Z,20.89
2018-08-31T08:09:46.425Z,20.95
2018-08-31T08:13:49.944Z,21.08
2018-08-31T08:17:53.448Z,21.22
2018-08-31T08:21:56.952Z,21.27
2018-08-31T08:26:00.475Z,21.42
2018-08-31T08:30:03.950Z,21.43
2018-08-31T08:34:07.426Z,21.53
2018-08-31T08:38:19.771Z,21.67
2018-08-31T08:42:23.342Z,21.74
2018-08-31T08:46:26.807Z,21.70
2018-08-31T08:50:30.298Z,21.69
2018-08-31T08:54:33.849Z,21.74
2018-08-31T08:58:37.357Z,21.83
2018-08-31T09:02:40.797Z,21.91
2018-08-31T09:06:44.335Z,21.96
2018-08-31T09:10:47.843Z,21.95
2018-08-31T09:14:51.356Z,22.02
2018-08-31T09:18:54.933Z,22.11
2018-08-31T09:22:58.419Z,22.21
2018-08-31T09:27:01.983Z,22.26
2018-08-31T09:31:09.662Z,22.31
2018-08-31T09:35:13.174Z,22.35
2018-08-31T09:39:16.762Z,22.39
2018-08-31T09:43:20.314Z,22.43
2018-08-31T09:47:23.823Z,22.47
2018-08-31T09:51:27.377Z,22.60
2018-08-31T09:55:30.864Z,22.80
2018-08-31T09:59:34.357Z,22.91
2018-08-31T10:03:37.913Z,22.97
2018-08-31T10:07:41.431Z,22.93
2018-08-31T10:11:44.910Z,22.93
2018-08-31T10:15:48.499Z,23.02
2018-08-31T10:19:52.000Z,23.04
2018-08-31T10:23:55.478Z,23.12
2018-08-31T10:27:58.986Z,23.20
2018-08-31T10:32:04.073Z,23.22
2018-08-31T10:36:07.558Z,23.24
2018-08-31T10:40:11.050Z,23.27
2018-08-31T10:44:14.523Z,23.38
2018-08-31T10:48:18.025Z,23.35
2018-08-31T10:52:21.577Z,23.40
2018-08-31T10:56:25.116Z,23.49
2018-08-31T11:00:28.614Z,23.58
2018-08-31T11:04:32.160Z,23.62
2018-08-31T11:08:35.649Z,23.52
2018-08-31T11:12:39.317Z,23.53
2018-08-31T11:16:42.741Z,23.58
2018-08-31T11:20:46.249Z,23.64
2018-08-31T11:24:49.792Z,23.58
2018-08-31T11:28:53.287Z,23.60
2018-08-31T11:32:56.978Z,23.71
2018-08-31T11:37:00.584Z,23.75
2018-08-31T11:41:04.584Z,23.73
2018-08-31T11:45:08.153Z,23.76
2018-08-31T11:49:11.689Z,23.77
2018-08-31T11:53:15.239Z,23.85
2018-08-31T11:57:18.751Z,23.93
2018-08-31T12:01:22.309Z,24.00
2018-08-31T12:05:25.763Z,24.11
2018-08-31T12:09:29.273Z,24.24
2018-08-31T12:13:32.985Z,24.38
2018-08-31T12:17:36.504Z,24.47
2018-08-31T12:21:40.012Z,24.54
2018-08-31T12:25:43.542Z,24.56
2018-08-31T12:29:47.009Z,24.62
2018-08-31T12:33:50.497Z,24.63
2018-08-31T12:37:54.032Z,24.61
2018-08-31T12:41:57.505Z,24.68
2018-08-31T12:46:01.265Z,24.75
2018-08-31T12:50:04.731Z,24.80
2018-08-31T12:54:08.245Z,24.70
2018-08-31T12:58:11.805Z,24.72
2018-08-31T13:02:15.314Z,24.76
2018-08-31T13:06:18.853Z,24.79
2018-08-31T13:10:22.375Z,24.75
2018-08-31T13:14:25.970Z,24.71
2018-08-31T13:18:29.497Z,24.63
2018-08-31T13:22:33.020Z,24.65
2018-08-31T13:26:36.509Z,24.70
2018-08-31T13:30:40.248Z,24.74
2018-08-31T13:34:43.776Z,24.78
2018-08-31T13:38:47.265Z,24.80
2018-08-31T13:42:50.754Z,24.85
2018-08-31T13:46:54.342Z,24.87
2018-08-31T13:50:57.818Z,24.91
2018-08-31T13:55:01.324Z,24.97
2018-08-31T13:59:05.119Z,24.98
2018-08-31T14:03:08.643Z,24.99
2018-08-31T14:07:12.215Z,25.00
2018-08-31T14:11:15.827Z,25.04
2018-08-31T14:15:19.419Z,25.06
2018-08-31T14:19:22.919Z,25.07
2018-08-31T14:23:26.476Z,25.11
2018-08-31T14:27:29.971Z,25.08
2018-08-31T14:31:33.464Z,25.04
2018-08-31T14:35:37.055Z,25.05
2018-08-31T14:39:40.691Z,25.06
2018-08-31T14:43:44.377Z,25.07
2018-08-31T14:47:47.891Z,25.05
2018-08-31T14:51:51.403Z,25.06
2018-08-31T14:55:54.929Z,25.09
2018-08-31T14:59:58.419Z,25.07
2018-08-31T15:04:02.553Z,25.03
2018-08-31T15:08:06.018Z,24.98
2018-08-31T15:12:09.522Z,24.98
2018-08-31T15:16:13.045Z,24.96
2018-08-31T15:20:16.546Z,24.95
2018-08-31T15:24:20.053Z,24.94
2018-08-31T15:28:23.527Z,24.90
2018-08-31T15:32:27.009Z,24.90
2018-08-31T15:36:30.514Z,24.89
2018-08-31T15:40:34.035Z,24.91
2018-08-31T15:44:37.599Z,24.94
2018-08-31T15:48:41.117Z,24.96
2018-08-31T15:52:44.579Z,24.92
2018-08-31T15:57:01.778Z,24.88
2018-08-31T16:01:05.379Z,24.87
2018-08-31T16:05:09.199Z,24.86
2018-08-31T16:09:12.714Z,24.86
2018-08-31T16:13:16.214Z,24.87
2018-08-31T16:17:19.698Z,24.86
2018-08-31T16:21:23.142Z,24.90
2018-08-31T16:25:26.631Z,24.92
2018-08-31T16:29:30.130Z,24.96
2018-08-31T16:33:33.733Z,24.99
2018-08-31T16:37:37.223Z,25.02
2018-08-31T16:41:40.731Z,25.00
2018-08-31T16:45:44.263Z,24.96
2018-08-31T16:49:47.726Z,24.85
2018-08-31T16:53:51.202Z,24.79
2018-08-31T16:57:54.714Z,24.75
2018-08-31T17:01:58.189Z,24.71
2018-08-31T17:06:01.728Z,24.67
2018-08-31T17:10:05.447Z,24.61
2018-08-31T17:14:08.957Z,24.53
2018-08-31T17:18:12.467Z,24.44
2018-08-31T17:22:16.061Z,24.34
2018-08-31T17:26:24.913Z,24.20
2018-08-31T17:30:28.389Z,24.14
2018-08-31T17:34:37.178Z,24.10
2018-08-31T17:38:40.658Z,24.09
2018-08-31T17:42:44.137Z,24.08
2018-08-31T17:46:47.611Z,24.04
2018-08-31T17:50:51.122Z,23.99
2018-08-31T17:54:54.562Z,23.92
2018-08-31T17:58:58.065Z,23.81
2018-08-31T18:03:01.573Z,23.70
2018-08-31T18:07:05.064Z,23.66
2018-08-31T18:11:08.806Z,23.61
2018-08-31T18:15:12.282Z,23.56
2018-08-31T18:19:15.756Z,23.52
2018-08-31T18:23:19.266Z,23.47
2018-08-31T18:27:22.757Z,23.43
2018-08-31T18:31:26.246Z,23.35
2018-08-31T18:35:29.805Z,23.28
2018-08-31T18:39:33.244Z,23.28
2018-08-31T18:43:36.844Z,23.26
2018-08-31T18:47:40.384Z,23.25
2018-08-31T18:51:43.938Z,23.18
2018-08-31T18:55:47.605Z,23.13
2018-08-31T18:59:51.114Z,23.08
2018-08-31T19:03:54.566Z,23.08
2018-08-31T19:07:58.936Z,23.07
2018-08-31T19:12:02.418Z,23.03
2018-08-31T19:16:06.028Z,22.96
2018-08-31T19:20:09.513Z,22.88
2018-08-31T19:24:13.039Z,22.78
2018-08-31T19:28:16.508Z,22.72
2018-08-31T19:32:20.016Z,22.74
2018-08-31T19:36:23.526Z,22.71
2018-08-31T19:40:27.016Z,22.68
2018-08-31T19:44:30.538Z,22.66
2018-08-31T19:48:33.983Z,22.65
2018-08-31T19:52:37.454Z,22.64
2018-08-31T19:56:41.041Z,22.60
2018-08-31T20:00:44.476Z,22.54
2018-08-31T20:04:48.035Z,22.51
2018-08-31T20:08:51.592Z,22.48
2018-08-31T20:12:55.083Z,22.44
2018-08-31T20:16:58.527Z,22.42
2018-08-31T20:21:02.013Z,22.35
2018-08-31T20:25:05.785Z,22.26
2018-08-31T20:29:09.254Z,22.21
2018-08-31T20:33:12.745Z,22.18
2018-08-31T20:37:16.245Z,22.14
2018-08-31T20:41:19.700Z,22.12
2018-08-31T20:45:23.385Z,22.11
2018-08-31T20:49:26.827Z,22.10
2018-08-31T20:53:30.327Z,22.01
2018-08-31T20:57:33.822Z,21.92
2018-08-31T21:01:37.492Z,21.85
2018-08-31T21:05:41.256Z,21.81
2018-08-31T21:09:44.738Z,21.77
2018-08-31T21:13:48.239Z,21.71
2018-08-31T21:17:51.748Z,21.68
2018-08-31T21:21:55.261Z,21.66
2018-08-31T21:25:58.844Z,21.66
2018-08-31T21:30:02.495Z,21.61
2018-08-31T21:34:06.027Z,21.57
2018-08-31T21:38:09.509Z,21.53
2018-08-31T21:42:13.246Z,21.51
2018-08-31T21:46:16.650Z,21.50
2018-08-31T21:50:20.135Z,21.48
2018-08-31T21:54:23.703Z,21.45
2018-08-31T21:58:27.163Z,21.40
2018-08-31T22:02:30.615Z,21.40
2018-08-31T22:06:34.097Z,21.36
2018-08-31T22:10:37.606Z,21.33
2018-08-31T22:14:41.090Z,21.28
2018-08-31T22:18:44.576Z,21.24
2018-08-31T22:22:48.058Z,21.20
2018-08-31T22:26:51.539Z,21.15
2018-08-31T22:30:55.059Z,21.14
2018-08-31T22:34:58.584Z,21.12
2018-08-31T22:39:02.269Z,21.09
2018-08-31T22:43:06.132Z,21.08
2018-08-31T22:47:09.577Z,21.04
2018-08-31T22:51:13.762Z,21.03
2018-08-31T22:55:17.220Z,21.01
2018-08-31T22:59:20.704Z,21.00
2018-08-31T23:03:24.211Z,20.96
2018-08-31T23:07:33.010Z,20.96
2018-08-31T23:11:36.511Z,20.94
2018-08-31T23:15:39.999Z,20.90
2018-08-31T23:19:43.573Z,20.83
2018-08-31T23:23:47.907Z,20.82
2018-08-31T23:27:51.494Z,20.79
2018-08-31T23:31:54.979Z,20.77
2018-08-31T23:35:58.450Z,20.79
2018-08-31T23:40:01.965Z,20.79
2018-08-31T23:44:05.547Z,20.78
2018-08-31T23:48:08.996Z,20.75
2018-08-31T23:52:12.484Z,20.75
2018-08-31T23:56:15.959Z,20.73
